Aeroporto :
LOGIN :

Iscrizione | Disclaimer

   EN    FR    IT 

 










Sommario :    VFR   VFR Marginale   IFR   IFR Intensivo   IFR Molto Intensivo
Visibilità : 
Base nubi : 
>= 8 km
>= 3000ft
5 / 8 km
1000 / 3000 ft
1500m / 5 km
500 / 1000 ft
800 / 1500m
200 / 500 ft
< 800m
< 200 ft
Simboli :   Temporali  Nebbia  Neve Forte  Precipitazioni Forti  Vento > 20 kt
SIGMETs :   Varie  Temporali  Ghiacco  Turbolenza  Onda orograficha  Ceneri Vulcaniche






- Altitudine del aeroporto : 433 ft
- Codice IATA : CCF


LFMK - Carcassonne

ULTIMO METAR :
  • 220830Z AUTO 29014KT 260V320 9999 SCT026 BKN042 21/13 Q1021 TEMPO 29015G25KT

METARs OBSOLETI :
  • 220800Z AUTO 29014KT 250V320 9999 FEW027 20/13 Q1021 NOSIG
  • 220730Z AUTO 30014KT 9999 FEW024 20/13 Q1021 NOSIG
  • 220700Z AUTO 27010KT 230V310 CAVOK 19/14 Q1021 NOSIG
  • 220630Z AUTO 26009KT 230V290 9999 SCT045 18/14 Q1021 NOSIG
  • 220600Z AUTO 26009KT 220V290 9999 OVC044 17/14 Q1021 NOSIG
  • 220530Z AUTO 27009KT 240V300 9999 OVC044 16/14 Q1021 NOSIG
  • 220500Z AUTO 27008KT 230V300 9999 OVC044 16/14 Q1021 NOSIG
  • 220430Z AUTO 26008KT 230V290 9999 OVC039 15/14 Q1020 NOSIG
  • 220400Z AUTO 26008KT 230V290 9999 SCT037 15/14 Q1021 NOSIG

TAF TAF LFMK
Valido dal 22 a 03 ore il 23 a 03 ore UTC


220200Z 2203/2303 27008KT CAVOK
TEMPO 2210/2303 29015G25KT
PROB40
TEMPO 2215/2218 30020G35KT 4000 RADZ BKN014
TEMPO 2218/2302 4000 RA BKN020



MetMap, La meteo Aeronautica in un colpo d'occhio ! - Copyright ORBIFLY Dicembre 2007 - Disclaimer

ORBIFLY MET'MAP TEAM :

Programmazione e sviluppo : Alexandra Zaïnal
Concezione : Baudouin d'Aumeries
Supporto tecnico e logistico : Manuel Goepfert
Aiuto : Marc-Olivier Méhu
Aiuto per la traduzione : Arnaldo La Scala




FONTI E CREDITI :

   NOAA